KBIL

Billings Logan International Airport

Airport
ICAO code
KBIL
Summary
ICAO Region
NAM
ICAO Territory
Location

Billings, Montana,

Coordinates
45° 48' 9" N , 108° 32' 8" W
KCC
BSk
Airport CFIT
Altimeter Temperature Error Correction
Airport LOS
Parallel Runway Operation
Airport RE
Hot and High Operations
Metar
Observation
KBIL 081853Z 24004KT 10SM CLR 31/07 A3006 RMK AO2 SLP139 T03110072
Station
Billings, Billings Logan International Airport
Date/Time
2022-08-08 18:53:00
Wind direction
240°
Wind speed
04 kts
Lowest cloud amount
n/a
Temperature
31.1°C
Dew point
7.2°C
Humidity
22%
Weather condition
n/a

Description

Billings Logan International Airport is a public use airport located 4 km northwest of the central business district of Billings, in Yellowstone County, Montana.

Climatology

Cold Semi-arid climate (Köppen climate classification BSk). - Hot, sometimes extremely hot summers and cold, sometimes very cold winters. Some snowfall during the winter. Areas featuring cold semi-arid climates are sometimes subject to major temperature swings during a 24 hour period.

Airport map

Aerial View

SKYbrary Partners:

Safety knowledge contributed by: